sensor_id;sensor_type;location;lat;lon;timestamp;temperature;humidity
336;DHT22;156;48.738;9.228;2023-06-22T00:01:55;21.70;99.90
336;DHT22;156;48.738;9.228;2023-06-22T00:04:30;21.60;99.90
336;DHT22;156;48.738;9.228;2023-06-22T00:07:08;21.50;99.90
336;DHT22;156;48.738;9.228;2023-06-22T00:09:47;21.60;99.90
336;DHT22;156;48.738;9.228;2023-06-22T00:12:21;21.10;99.90
336;DHT22;156;48.738;9.228;2023-06-22T00:14:53;21.40;99.90
336;DHT22;156;48.738;9.228;2023-06-22T00:17:27;21.40;99.90
336;DHT22;156;48.738;9.228;2023-06-22T00:20:11;20.20;99.90
336;DHT22;156;48.738;9.228;2023-06-22T00:22:46;21.60;99.90
336;DHT22;156;48.738;9.228;2023-06-22T00:25:19;21.70;99.90
336;DHT22;156;48.738;9.228;2023-06-22T00:30:51;21.70;99.90
336;DHT22;156;48.738;9.228;2023-06-22T00:33:26;21.50;99.90
336;DHT22;156;48.738;9.228;2023-06-22T00:36:06;21.80;99.90
336;DHT22;156;48.738;9.228;2023-06-22T00:38:46;21.80;99.90
336;DHT22;156;48.738;9.228;2023-06-22T00:41:16;20.60;99.90
336;DHT22;156;48.738;9.228;2023-06-22T00:43:48;22.00;99.90
336;DHT22;156;48.738;9.228;2023-06-22T00:46:16;22.50;99.90
336;DHT22;156;48.738;9.228;2023-06-22T00:48:43;22.00;99.90
336;DHT22;156;48.738;9.228;2023-06-22T00:51:15;22.20;99.90
336;DHT22;156;48.738;9.228;2023-06-22T00:53:50;22.00;99.90
336;DHT22;156;48.738;9.228;2023-06-22T00:56:19;21.90;99.90
336;DHT22;156;48.738;9.228;2023-06-22T00:58:51;21.90;99.90
336;DHT22;156;48.738;9.228;2023-06-22T01:01:23;22.00;99.90
336;DHT22;156;48.738;9.228;2023-06-22T01:03:58;21.90;99.90
336;DHT22;156;48.738;9.228;2023-06-22T01:06:32;21.90;99.90
336;DHT22;156;48.738;9.228;2023-06-22T01:09:10;21.90;99.90
336;DHT22;156;48.738;9.228;2023-06-22T01:11:45;22.20;99.90
336;DHT22;156;48.738;9.228;2023-06-22T01:14:25;21.80;99.90
336;DHT22;156;48.738;9.228;2023-06-22T01:16:54;21.80;99.90
336;DHT22;156;48.738;9.228;2023-06-22T01:19:38;21.80;99.90
336;DHT22;156;48.738;9.228;2023-06-22T01:22:07;21.80;99.90
336;DHT22;156;48.738;9.228;2023-06-22T01:24:48;21.70;99.90
336;DHT22;156;48.738;9.228;2023-06-22T01:27:28;21.60;99.90
336;DHT22;156;48.738;9.228;2023-06-22T01:30:02;21.60;99.90
336;DHT22;156;48.738;9.228;2023-06-22T01:32:32;21.40;99.90
336;DHT22;156;48.738;9.228;2023-06-22T01:35:01;21.50;99.90
336;DHT22;156;48.738;9.228;2023-06-22T01:37:30;21.40;99.90
336;DHT22;156;48.738;9.228;2023-06-22T01:39:59;21.30;99.90
336;DHT22;156;48.738;9.228;2023-06-22T01:42:27;21.30;99.90
336;DHT22;156;48.738;9.228;2023-06-22T01:44:55;21.30;99.90
336;DHT22;156;48.738;9.228;2023-06-22T01:47:24;21.30;99.90
336;DHT22;156;48.738;9.228;2023-06-22T01:49:51;21.10;99.90
336;DHT22;156;48.738;9.228;2023-06-22T01:52:19;20.90;99.90
336;DHT22;156;48.738;9.228;2023-06-22T01:54:47;20.90;99.90
336;DHT22;156;48.738;9.228;2023-06-22T01:57:14;20.80;99.90
336;DHT22;156;48.738;9.228;2023-06-22T01:59:49;20.60;99.90
336;DHT22;156;48.738;9.228;2023-06-22T02:02:20;20.50;99.90
336;DHT22;156;48.738;9.228;2023-06-22T02:04:56;20.50;99.90
336;DHT22;156;48.738;9.228;2023-06-22T02:07:29;20.40;99.90
336;DHT22;156;48.738;9.228;2023-06-22T02:09:59;20.50;99.90
336;DHT22;156;48.738;9.228;2023-06-22T02:12:29;20.40;99.90
336;DHT22;156;48.738;9.228;2023-06-22T02:14:57;20.30;99.90
336;DHT22;156;48.738;9.228;2023-06-22T02:17:26;20.20;99.90
336;DHT22;156;48.738;9.228;2023-06-22T02:19:55;20.10;99.90
336;DHT22;156;48.738;9.228;2023-06-22T02:22:21;20.20;99.90
336;DHT22;156;48.738;9.228;2023-06-22T02:24:49;20.10;99.90
336;DHT22;156;48.738;9.228;2023-06-22T02:27:16;20.10;99.90
336;DHT22;156;48.738;9.228;2023-06-22T02:29:43;18.80;99.90
336;DHT22;156;48.738;9.228;2023-06-22T02:32:10;19.90;99.90
336;DHT22;156;48.738;9.228;2023-06-22T02:34:36;19.80;99.90
336;DHT22;156;48.738;9.228;2023-06-22T02:37:05;19.90;99.90
336;DHT22;156;48.738;9.228;2023-06-22T02:39:32;19.90;99.90
336;DHT22;156;48.738;9.228;2023-06-22T02:41:59;19.80;99.90
336;DHT22;156;48.738;9.228;2023-06-22T02:44:26;19.70;99.90
336;DHT22;156;48.738;9.228;2023-06-22T02:46:56;19.70;99.90
336;DHT22;156;48.738;9.228;2023-06-22T02:49:23;19.80;99.90
336;DHT22;156;48.738;9.228;2023-06-22T02:51:54;19.80;99.90
336;DHT22;156;48.738;9.228;2023-06-22T02:54:25;19.80;99.90
336;DHT22;156;48.738;9.228;2023-06-22T02:56:51;19.80;99.90
336;DHT22;156;48.738;9.228;2023-06-22T02:59:19;19.70;99.90
336;DHT22;156;48.738;9.228;2023-06-22T03:01:50;19.70;99.90
336;DHT22;156;48.738;9.228;2023-06-22T03:04:21;18.50;99.90
336;DHT22;156;48.738;9.228;2023-06-22T03:06:49;19.70;99.90
336;DHT22;156;48.738;9.228;2023-06-22T03:09:20;19.60;99.90
336;DHT22;156;48.738;9.228;2023-06-22T03:11:48;19.70;99.90
336;DHT22;156;48.738;9.228;2023-06-22T03:14:15;19.60;99.90
336;DHT22;156;48.738;9.228;2023-06-22T03:16:42;19.60;99.90
336;DHT22;156;48.738;9.228;2023-06-22T03:19:11;19.50;99.90
336;DHT22;156;48.738;9.228;2023-06-22T03:21:38;19.50;99.90
336;DHT22;156;48.738;9.228;2023-06-22T03:24:06;19.50;99.90
336;DHT22;156;48.738;9.228;2023-06-22T03:26:33;19.50;99.90
336;DHT22;156;48.738;9.228;2023-06-22T03:29:04;19.50;99.90
336;DHT22;156;48.738;9.228;2023-06-22T03:31:33;19.50;99.90
336;DHT22;156;48.738;9.228;2023-06-22T03:34:06;19.40;99.90
336;DHT22;156;48.738;9.228;2023-06-22T03:36:33;19.50;99.90
336;DHT22;156;48.738;9.228;2023-06-22T03:39:02;19.40;99.90
336;DHT22;156;48.738;9.228;2023-06-22T03:41:29;19.40;99.90
336;DHT22;156;48.738;9.228;2023-06-22T03:43:59;19.40;99.90
336;DHT22;156;48.738;9.228;2023-06-22T03:46:27;19.50;99.90
336;DHT22;156;48.738;9.228;2023-06-22T03:48:54;19.40;99.90
336;DHT22;156;48.738;9.228;2023-06-22T03:51:21;19.40;99.90
336;DHT22;156;48.738;9.228;2023-06-22T03:53:48;19.40;99.90
336;DHT22;156;48.738;9.228;2023-06-22T03:56:16;19.30;99.90
336;DHT22;156;48.738;9.228;2023-06-22T03:58:46;19.30;99.90
336;DHT22;156;48.738;9.228;2023-06-22T04:01:16;19.40;99.90
336;DHT22;156;48.738;9.228;2023-06-22T04:03:45;19.40;99.90
336;DHT22;156;48.738;9.228;2023-06-22T04:06:15;19.40;99.90
336;DHT22;156;48.738;9.228;2023-06-22T04:08:45;19.60;99.90
336;DHT22;156;48.738;9.228;2023-06-22T04:11:13;19.60;99.90
336;DHT22;156;48.738;9.228;2023-06-22T04:13:40;19.60;99.90
336;DHT22;156;48.738;9.228;2023-06-22T04:16:09;19.60;99.90
336;DHT22;156;48.738;9.228;2023-06-22T04:18:41;19.60;99.90
336;DHT22;156;48.738;9.228;2023-06-22T04:21:11;19.60;99.90
336;DHT22;156;48.738;9.228;2023-06-22T04:23:40;19.60;99.90
336;DHT22;156;48.738;9.228;2023-06-22T04:26:08;19.60;99.90
336;DHT22;156;48.738;9.228;2023-06-22T04:28:38;19.70;99.90
336;DHT22;156;48.738;9.228;2023-06-22T04:31:07;19.80;99.90
336;DHT22;156;48.738;9.228;2023-06-22T04:33:34;19.80;99.90
336;DHT22;156;48.738;9.228;2023-06-22T04:36:04;19.90;99.90
336;DHT22;156;48.738;9.228;2023-06-22T04:38:32;20.00;99.90
336;DHT22;156;48.738;9.228;2023-06-22T04:40:59;20.00;99.90
336;DHT22;156;48.738;9.228;2023-06-22T04:43:28;20.00;99.90
336;DHT22;156;48.738;9.228;2023-06-22T04:45:56;20.00;99.90
336;DHT22;156;48.738;9.228;2023-06-22T04:48:29;20.10;99.90
336;DHT22;156;48.738;9.228;2023-06-22T04:51:01;20.10;99.90
336;DHT22;156;48.738;9.228;2023-06-22T04:53:36;20.10;99.90
336;DHT22;156;48.738;9.228;2023-06-22T04:56:03;20.10;99.90
336;DHT22;156;48.738;9.228;2023-06-22T04:58:36;20.20;99.90
336;DHT22;156;48.738;9.228;2023-06-22T05:01:03;20.30;99.90
336;DHT22;156;48.738;9.228;2023-06-22T05:03:30;20.30;99.90
336;DHT22;156;48.738;9.228;2023-06-22T05:05:57;20.40;99.90
336;DHT22;156;48.738;9.228;2023-06-22T05:08:24;20.50;99.90
336;DHT22;156;48.738;9.228;2023-06-22T05:10:56;20.50;99.90
336;DHT22;156;48.738;9.228;2023-06-22T05:13:26;20.60;99.90
336;DHT22;156;48.738;9.228;2023-06-22T05:15:54;20.60;99.90
336;DHT22;156;48.738;9.228;2023-06-22T05:18:27;20.80;99.90
336;DHT22;156;48.738;9.228;2023-06-22T05:20:57;20.90;99.90
336;DHT22;156;48.738;9.228;2023-06-22T05:23:24;21.00;99.90
336;DHT22;156;48.738;9.228;2023-06-22T05:25:51;20.90;99.90
336;DHT22;156;48.738;9.228;2023-06-22T05:28:21;21.00;99.90
336;DHT22;156;48.738;9.228;2023-06-22T05:30:48;20.90;99.90
336;DHT22;156;48.738;9.228;2023-06-22T05:33:15;21.00;99.90
336;DHT22;156;48.738;9.228;2023-06-22T05:35:42;21.00;99.90
336;DHT22;156;48.738;9.228;2023-06-22T05:38:09;21.10;99.90
336;DHT22;156;48.738;9.228;2023-06-22T05:40:39;21.20;99.90
336;DHT22;156;48.738;9.228;2023-06-22T05:43:06;21.30;99.90
336;DHT22;156;48.738;9.228;2023-06-22T05:45:36;21.30;99.90
336;DHT22;156;48.738;9.228;2023-06-22T05:48:04;21.30;99.90
336;DHT22;156;48.738;9.228;2023-06-22T05:50:31;21.40;99.90
336;DHT22;156;48.738;9.228;2023-06-22T05:53:05;21.50;99.90
336;DHT22;156;48.738;9.228;2023-06-22T05:55:33;21.40;99.90
336;DHT22;156;48.738;9.228;2023-06-22T05:58:05;21.50;99.90
336;DHT22;156;48.738;9.228;2023-06-22T06:00:35;21.60;99.90
336;DHT22;156;48.738;9.228;2023-06-22T06:03:03;21.60;99.90
336;DHT22;156;48.738;9.228;2023-06-22T06:05:34;21.60;99.90
336;DHT22;156;48.738;9.228;2023-06-22T06:08:05;21.80;99.90
336;DHT22;156;48.738;9.228;2023-06-22T06:10:33;21.80;99.90
336;DHT22;156;48.738;9.228;2023-06-22T06:13:02;21.80;99.90
336;DHT22;156;48.738;9.228;2023-06-22T06:15:30;21.90;99.90
336;DHT22;156;48.738;9.228;2023-06-22T06:18:01;22.00;97.60
336;DHT22;156;48.738;9.228;2023-06-22T06:20:31;22.00;98.30
336;DHT22;156;48.738;9.228;2023-06-22T06:22:58;22.00;93.10
336;DHT22;156;48.738;9.228;2023-06-22T06:25:25;22.00;93.30
336;DHT22;156;48.738;9.228;2023-06-22T06:27:52;22.00;91.80
336;DHT22;156;48.738;9.228;2023-06-22T06:30:23;22.40;84.60
336;DHT22;156;48.738;9.228;2023-06-22T06:32:51;22.60;76.80
336;DHT22;156;48.738;9.228;2023-06-22T06:35:22;22.50;71.90
336;DHT22;156;48.738;9.228;2023-06-22T06:38:04;22.70;69.00
336;DHT22;156;48.738;9.228;2023-06-22T06:40:41;22.80;69.60
336;DHT22;156;48.738;9.228;2023-06-22T06:43:10;23.00;68.60
336;DHT22;156;48.738;9.228;2023-06-22T06:45:48;22.90;66.60
336;DHT22;156;48.738;9.228;2023-06-22T06:48:27;21.40;51.70
336;DHT22;156;48.738;9.228;2023-06-22T06:50:58;23.40;47.30
336;DHT22;156;48.738;9.228;2023-06-22T06:53:33;23.40;33.10
336;DHT22;156;48.738;9.228;2023-06-22T06:56:08;22.30;24.80
336;DHT22;156;48.738;9.228;2023-06-22T06:58:40;23.70;9.40
336;DHT22;156;48.738;9.228;2023-06-22T07:01:08;23.80;1.00
336;DHT22;156;48.738;9.228;2023-06-22T07:03:38;23.60;1.00
336;DHT22;156;48.738;9.228;2023-06-22T07:06:10;23.70;1.00
336;DHT22;156;48.738;9.228;2023-06-22T07:08:41;23.80;1.00
336;DHT22;156;48.738;9.228;2023-06-22T07:11:09;24.10;1.00
336;DHT22;156;48.738;9.228;2023-06-22T07:13:37;23.90;1.00
336;DHT22;156;48.738;9.228;2023-06-22T07:16:07;24.00;1.00
336;DHT22;156;48.738;9.228;2023-06-22T07:18:34;24.10;1.00
336;DHT22;156;48.738;9.228;2023-06-22T07:21:07;24.10;1.00
336;DHT22;156;48.738;9.228;2023-06-22T07:23:37;24.30;1.00
336;DHT22;156;48.738;9.228;2023-06-22T07:26:05;24.60;1.00
336;DHT22;156;48.738;9.228;2023-06-22T07:28:40;24.50;1.00
336;DHT22;156;48.738;9.228;2023-06-22T07:31:12;24.60;1.00
336;DHT22;156;48.738;9.228;2023-06-22T07:34:01;24.70;1.00
336;DHT22;156;48.738;9.228;2023-06-22T07:36:42;24.70;1.00
336;DHT22;156;48.738;9.228;2023-06-22T07:39:39;24.80;1.00
336;DHT22;156;48.738;9.228;2023-06-22T07:42:09;24.80;1.00
336;DHT22;156;48.738;9.228;2023-06-22T07:44:36;24.80;1.00
336;DHT22;156;48.738;9.228;2023-06-22T07:47:04;25.10;1.00
336;DHT22;156;48.738;9.228;2023-06-22T07:49:37;25.30;1.00
336;DHT22;156;48.738;9.228;2023-06-22T07:52:21;25.30;1.00
336;DHT22;156;48.738;9.228;2023-06-22T07:55:03;25.40;1.00
336;DHT22;156;48.738;9.228;2023-06-22T07:57:53;25.50;1.00
336;DHT22;156;48.738;9.228;2023-06-22T08:00:29;25.70;1.00
336;DHT22;156;48.738;9.228;2023-06-22T08:02:59;25.70;1.00
336;DHT22;156;48.738;9.228;2023-06-22T08:05:32;25.80;1.00
336;DHT22;156;48.738;9.228;2023-06-22T08:08:04;25.80;1.00
336;DHT22;156;48.738;9.228;2023-06-22T08:10:48;25.80;1.00
336;DHT22;156;48.738;9.228;2023-06-22T08:13:18;25.90;1.00
336;DHT22;156;48.738;9.228;2023-06-22T08:15:53;26.00;1.00
336;DHT22;156;48.738;9.228;2023-06-22T08:18:23;26.20;1.00
336;DHT22;156;48.738;9.228;2023-06-22T08:20:52;26.30;1.00
336;DHT22;156;48.738;9.228;2023-06-22T08:23:20;26.50;1.00
336;DHT22;156;48.738;9.228;2023-06-22T08:25:52;26.60;1.00
336;DHT22;156;48.738;9.228;2023-06-22T08:28:22;26.60;1.00
336;DHT22;156;48.738;9.228;2023-06-22T08:30:49;26.80;1.00
336;DHT22;156;48.738;9.228;2023-06-22T08:33:17;27.10;1.00
336;DHT22;156;48.738;9.228;2023-06-22T08:35:45;27.30;1.00
336;DHT22;156;48.738;9.228;2023-06-22T08:38:14;27.40;1.00
336;DHT22;156;48.738;9.228;2023-06-22T08:40:47;27.60;1.00
336;DHT22;156;48.738;9.228;2023-06-22T08:43:20;26.80;1.00
336;DHT22;156;48.738;9.228;2023-06-22T08:45:52;25.20;1.00
336;DHT22;156;48.738;9.228;2023-06-22T08:48:31;26.80;1.00
336;DHT22;156;48.738;9.228;2023-06-22T08:51:07;26.80;1.00
336;DHT22;156;48.738;9.228;2023-06-22T08:53:42;26.70;1.00
336;DHT22;156;48.738;9.228;2023-06-22T08:56:29;27.00;1.00
336;DHT22;156;48.738;9.228;2023-06-22T08:59:08;27.10;1.00
336;DHT22;156;48.738;9.228;2023-06-22T09:01:46;28.10;1.00
336;DHT22;156;48.738;9.228;2023-06-22T09:04:18;27.60;1.00
336;DHT22;156;48.738;9.228;2023-06-22T09:06:52;27.90;1.00
336;DHT22;156;48.738;9.228;2023-06-22T09:09:27;27.90;1.00
336;DHT22;156;48.738;9.228;2023-06-22T09:12:01;28.00;1.00
336;DHT22;156;48.738;9.228;2023-06-22T09:14:36;28.00;1.00
336;DHT22;156;48.738;9.228;2023-06-22T09:17:04;27.90;1.00
336;DHT22;156;48.738;9.228;2023-06-22T09:19:31;27.90;1.00
336;DHT22;156;48.738;9.228;2023-06-22T09:21:58;27.90;1.00
336;DHT22;156;48.738;9.228;2023-06-22T09:24:25;28.10;1.00
336;DHT22;156;48.738;9.228;2023-06-22T09:26:52;28.10;1.00
336;DHT22;156;48.738;9.228;2023-06-22T09:29:19;27.70;1.00
336;DHT22;156;48.738;9.228;2023-06-22T09:31:47;27.60;1.00
336;DHT22;156;48.738;9.228;2023-06-22T09:34:14;27.50;1.00
336;DHT22;156;48.738;9.228;2023-06-22T09:36:41;27.60;1.00
336;DHT22;156;48.738;9.228;2023-06-22T09:39:10;27.60;1.00
336;DHT22;156;48.738;9.228;2023-06-22T09:41:37;27.70;1.00
336;DHT22;156;48.738;9.228;2023-06-22T09:44:06;27.90;1.00
336;DHT22;156;48.738;9.228;2023-06-22T09:46:36;28.00;1.00
336;DHT22;156;48.738;9.228;2023-06-22T09:49:04;28.00;1.00
336;DHT22;156;48.738;9.228;2023-06-22T09:51:31;28.20;1.00
336;DHT22;156;48.738;9.228;2023-06-22T09:53:58;28.40;1.00
336;DHT22;156;48.738;9.228;2023-06-22T09:56:25;28.50;1.00
336;DHT22;156;48.738;9.228;2023-06-22T09:58:55;28.50;1.00
336;DHT22;156;48.738;9.228;2023-06-22T10:01:22;28.70;1.00
336;DHT22;156;48.738;9.228;2023-06-22T10:03:52;28.90;1.00
336;DHT22;156;48.738;9.228;2023-06-22T10:06:22;29.00;1.00
336;DHT22;156;48.738;9.228;2023-06-22T10:08:51;29.40;1.00
336;DHT22;156;48.738;9.228;2023-06-22T10:11:18;29.50;1.00
336;DHT22;156;48.738;9.228;2023-06-22T10:13:45;29.60;1.00
336;DHT22;156;48.738;9.228;2023-06-22T10:16:12;29.50;1.00
336;DHT22;156;48.738;9.228;2023-06-22T10:18:41;29.70;1.00
336;DHT22;156;48.738;9.228;2023-06-22T10:21:08;29.70;1.00
336;DHT22;156;48.738;9.228;2023-06-22T10:23:36;29.90;1.00
336;DHT22;156;48.738;9.228;2023-06-22T10:26:03;30.00;1.00
336;DHT22;156;48.738;9.228;2023-06-22T10:28:30;30.10;1.00
336;DHT22;156;48.738;9.228;2023-06-22T10:30:57;30.40;1.00
336;DHT22;156;48.738;9.228;2023-06-22T10:33:24;30.50;1.00
336;DHT22;156;48.738;9.228;2023-06-22T10:35:56;30.50;1.00
336;DHT22;156;48.738;9.228;2023-06-22T10:38:29;30.50;1.00
336;DHT22;156;48.738;9.228;2023-06-22T10:40:57;30.70;1.00
336;DHT22;156;48.738;9.228;2023-06-22T10:43:24;30.70;1.00
336;DHT22;156;48.738;9.228;2023-06-22T10:45:51;30.50;1.00
336;DHT22;156;48.738;9.228;2023-06-22T10:48:20;30.50;1.00
336;DHT22;156;48.738;9.228;2023-06-22T10:50:47;30.40;1.00
336;DHT22;156;48.738;9.228;2023-06-22T10:53:14;30.40;1.00
336;DHT22;156;48.738;9.228;2023-06-22T10:55:41;30.60;1.00
336;DHT22;156;48.738;9.228;2023-06-22T10:58:12;30.90;1.00
336;DHT22;156;48.738;9.228;2023-06-22T11:00:39;31.00;1.00
336;DHT22;156;48.738;9.228;2023-06-22T11:03:06;30.80;1.00
336;DHT22;156;48.738;9.228;2023-06-22T11:05:33;31.00;1.00
336;DHT22;156;48.738;9.228;2023-06-22T11:08:02;31.00;1.00
336;DHT22;156;48.738;9.228;2023-06-22T11:10:29;31.00;1.00
336;DHT22;156;48.738;9.228;2023-06-22T11:12:56;31.10;1.00
336;DHT22;156;48.738;9.228;2023-06-22T11:15:25;31.30;1.00
336;DHT22;156;48.738;9.228;2023-06-22T11:17:51;31.20;1.00
336;DHT22;156;48.738;9.228;2023-06-22T11:20:18;31.20;1.00
336;DHT22;156;48.738;9.228;2023-06-22T11:22:45;31.40;1.00
336;DHT22;156;48.738;9.228;2023-06-22T11:25:12;31.50;1.00
336;DHT22;156;48.738;9.228;2023-06-22T11:27:39;31.40;1.00
336;DHT22;156;48.738;9.228;2023-06-22T11:30:08;31.40;1.00
336;DHT22;156;48.738;9.228;2023-06-22T11:32:36;31.20;1.00
336;DHT22;156;48.738;9.228;2023-06-22T11:35:03;31.10;1.00
336;DHT22;156;48.738;9.228;2023-06-22T11:37:30;30.70;1.00
336;DHT22;156;48.738;9.228;2023-06-22T11:39:57;31.00;1.00
336;DHT22;156;48.738;9.228;2023-06-22T11:42:24;31.20;1.00
336;DHT22;156;48.738;9.228;2023-06-22T11:44:51;31.40;1.00
336;DHT22;156;48.738;9.228;2023-06-22T11:47:18;31.60;1.00
336;DHT22;156;48.738;9.228;2023-06-22T11:49:47;31.70;1.00
336;DHT22;156;48.738;9.228;2023-06-22T11:52:14;31.80;1.00
336;DHT22;156;48.738;9.228;2023-06-22T11:54:40;32.00;1.00
336;DHT22;156;48.738;9.228;2023-06-22T11:57:07;31.90;1.00
336;DHT22;156;48.738;9.228;2023-06-22T11:59:36;31.90;1.00
336;DHT22;156;48.738;9.228;2023-06-22T12:02:04;31.70;1.00
336;DHT22;156;48.738;9.228;2023-06-22T12:04:33;31.70;1.00
336;DHT22;156;48.738;9.228;2023-06-22T12:07:01;31.50;1.00
336;DHT22;156;48.738;9.228;2023-06-22T12:09:28;31.40;1.00
336;DHT22;156;48.738;9.228;2023-06-22T12:11:55;31.20;1.00
336;DHT22;156;48.738;9.228;2023-06-22T12:14:22;31.20;1.00
336;DHT22;156;48.738;9.228;2023-06-22T12:16:52;31.20;1.00
336;DHT22;156;48.738;9.228;2023-06-22T12:19:19;31.10;1.00
336;DHT22;156;48.738;9.228;2023-06-22T12:21:46;31.10;1.00
336;DHT22;156;48.738;9.228;2023-06-22T12:24:22;31.30;1.00
336;DHT22;156;48.738;9.228;2023-06-22T12:26:51;31.50;1.00
336;DHT22;156;48.738;9.228;2023-06-22T12:29:20;31.60;1.00
336;DHT22;156;48.738;9.228;2023-06-22T12:31:49;31.70;1.00
336;DHT22;156;48.738;9.228;2023-06-22T12:34:16;31.70;1.00
336;DHT22;156;48.738;9.228;2023-06-22T12:36:45;31.60;1.00
336;DHT22;156;48.738;9.228;2023-06-22T12:39:15;31.40;1.00
336;DHT22;156;48.738;9.228;2023-06-22T12:41:44;31.10;1.00
336;DHT22;156;48.738;9.228;2023-06-22T12:44:11;30.70;1.00
336;DHT22;156;48.738;9.228;2023-06-22T12:46:37;30.40;1.00
336;DHT22;156;48.738;9.228;2023-06-22T12:49:04;30.00;1.00
336;DHT22;156;48.738;9.228;2023-06-22T12:51:31;30.20;1.00
336;DHT22;156;48.738;9.228;2023-06-22T12:53:59;30.10;1.00
336;DHT22;156;48.738;9.228;2023-06-22T12:56:27;30.10;1.00
336;DHT22;156;48.738;9.228;2023-06-22T12:58:54;30.10;1.00
336;DHT22;156;48.738;9.228;2023-06-22T13:01:23;30.20;1.00
336;DHT22;156;48.738;9.228;2023-06-22T13:03:50;30.20;1.00
336;DHT22;156;48.738;9.228;2023-06-22T13:06:17;30.20;1.00
336;DHT22;156;48.738;9.228;2023-06-22T13:08:43;30.30;1.00
336;DHT22;156;48.738;9.228;2023-06-22T13:11:10;30.30;1.00
336;DHT22;156;48.738;9.228;2023-06-22T13:13:39;30.50;1.00
336;DHT22;156;48.738;9.228;2023-06-22T13:16:06;29.80;1.00
336;DHT22;156;48.738;9.228;2023-06-22T13:18:33;29.80;1.00
336;DHT22;156;48.738;9.228;2023-06-22T13:21:01;30.00;1.00
336;DHT22;156;48.738;9.228;2023-06-22T13:23:28;30.20;1.00
336;DHT22;156;48.738;9.228;2023-06-22T13:25:55;30.50;1.00
336;DHT22;156;48.738;9.228;2023-06-22T13:28:22;30.60;1.00
336;DHT22;156;48.738;9.228;2023-06-22T13:30:57;30.90;1.00
336;DHT22;156;48.738;9.228;2023-06-22T13:33:23;31.00;1.00
336;DHT22;156;48.738;9.228;2023-06-22T13:35:50;31.00;1.00
336;DHT22;156;48.738;9.228;2023-06-22T13:38:17;31.10;1.00
336;DHT22;156;48.738;9.228;2023-06-22T13:40:46;31.00;1.00
336;DHT22;156;48.738;9.228;2023-06-22T13:43:14;31.10;1.00
336;DHT22;156;48.738;9.228;2023-06-22T13:45:49;31.10;1.00
336;DHT22;156;48.738;9.228;2023-06-22T13:48:17;31.10;1.00
336;DHT22;156;48.738;9.228;2023-06-22T13:50:44;31.30;1.00
336;DHT22;156;48.738;9.228;2023-06-22T13:53:13;31.50;1.00
336;DHT22;156;48.738;9.228;2023-06-22T13:55:40;31.70;1.00
336;DHT22;156;48.738;9.228;2023-06-22T13:58:07;31.70;1.00
336;DHT22;156;48.738;9.228;2023-06-22T14:00:46;31.80;1.00
336;DHT22;156;48.738;9.228;2023-06-22T14:03:14;31.80;1.00
336;DHT22;156;48.738;9.228;2023-06-22T14:05:43;32.00;1.00
336;DHT22;156;48.738;9.228;2023-06-22T14:08:15;32.20;1.00
336;DHT22;156;48.738;9.228;2023-06-22T14:10:43;32.60;1.00
336;DHT22;156;48.738;9.228;2023-06-22T14:13:10;32.70;1.00
336;DHT22;156;48.738;9.228;2023-06-22T14:15:40;32.90;1.00
336;DHT22;156;48.738;9.228;2023-06-22T14:18:14;32.80;1.00
336;DHT22;156;48.738;9.228;2023-06-22T14:20:45;33.00;1.00
336;DHT22;156;48.738;9.228;2023-06-22T14:23:15;33.30;1.00
336;DHT22;156;48.738;9.228;2023-06-22T14:25:51;32.60;1.00
336;DHT22;156;48.738;9.228;2023-06-22T14:28:33;32.40;1.00
336;DHT22;156;48.738;9.228;2023-06-22T14:31:15;31.80;1.00
336;DHT22;156;48.738;9.228;2023-06-22T14:33:51;31.90;1.00
336;DHT22;156;48.738;9.228;2023-06-22T14:36:36;32.10;1.00
336;DHT22;156;48.738;9.228;2023-06-22T14:39:18;31.50;1.00
336;DHT22;156;48.738;9.228;2023-06-22T14:41:53;32.00;1.00
336;DHT22;156;48.738;9.228;2023-06-22T14:44:40;31.80;1.00
336;DHT22;156;48.738;9.228;2023-06-22T14:47:13;32.00;1.00
336;DHT22;156;48.738;9.228;2023-06-22T14:49:40;32.00;1.00
336;DHT22;156;48.738;9.228;2023-06-22T14:52:12;32.30;1.00
336;DHT22;156;48.738;9.228;2023-06-22T14:54:45;31.70;1.00
336;DHT22;156;48.738;9.228;2023-06-22T14:57:15;32.10;1.00
336;DHT22;156;48.738;9.228;2023-06-22T14:59:45;32.10;1.00
336;DHT22;156;48.738;9.228;2023-06-22T15:02:16;32.20;1.00
336;DHT22;156;48.738;9.228;2023-06-22T15:04:43;32.00;1.00
336;DHT22;156;48.738;9.228;2023-06-22T15:07:13;32.00;1.00
336;DHT22;156;48.738;9.228;2023-06-22T15:09:40;31.70;1.00
336;DHT22;156;48.738;9.228;2023-06-22T15:12:08;31.40;1.00
336;DHT22;156;48.738;9.228;2023-06-22T15:14:41;31.50;1.00
336;DHT22;156;48.738;9.228;2023-06-22T15:17:08;31.40;1.00
336;DHT22;156;48.738;9.228;2023-06-22T15:19:38;31.50;1.00
336;DHT22;156;48.738;9.228;2023-06-22T15:22:05;31.60;1.00
336;DHT22;156;48.738;9.228;2023-06-22T15:24:38;31.70;1.00
336;DHT22;156;48.738;9.228;2023-06-22T15:27:17;32.10;1.00
336;DHT22;156;48.738;9.228;2023-06-22T15:29:57;32.30;1.00
336;DHT22;156;48.738;9.228;2023-06-22T15:32:24;32.30;1.00
336;DHT22;156;48.738;9.228;2023-06-22T15:34:51;31.80;1.00
336;DHT22;156;48.738;9.228;2023-06-22T15:37:19;31.70;1.00
336;DHT22;156;48.738;9.228;2023-06-22T15:39:47;31.50;1.00
336;DHT22;156;48.738;9.228;2023-06-22T15:42:17;31.00;1.00
336;DHT22;156;48.738;9.228;2023-06-22T15:44:44;31.00;1.00
336;DHT22;156;48.738;9.228;2023-06-22T15:47:13;31.10;1.00
336;DHT22;156;48.738;9.228;2023-06-22T15:49:41;31.20;1.00
336;DHT22;156;48.738;9.228;2023-06-22T15:52:11;30.90;1.00
336;DHT22;156;48.738;9.228;2023-06-22T15:54:39;31.10;1.00
336;DHT22;156;48.738;9.228;2023-06-22T15:57:09;31.20;1.00
336;DHT22;156;48.738;9.228;2023-06-22T15:59:42;30.90;1.00
336;DHT22;156;48.738;9.228;2023-06-22T16:02:15;30.50;1.00
336;DHT22;156;48.738;9.228;2023-06-22T16:04:42;30.50;1.00
336;DHT22;156;48.738;9.228;2023-06-22T16:07:09;30.00;1.00
336;DHT22;156;48.738;9.228;2023-06-22T16:09:39;29.80;1.00
336;DHT22;156;48.738;9.228;2023-06-22T16:12:10;29.60;1.00
336;DHT22;156;48.738;9.228;2023-06-22T16:14:37;29.50;1.00
336;DHT22;156;48.738;9.228;2023-06-22T16:17:07;29.40;1.00
336;DHT22;156;48.738;9.228;2023-06-22T16:19:38;29.20;1.00
336;DHT22;156;48.738;9.228;2023-06-22T16:22:19;29.20;1.00
336;DHT22;156;48.738;9.228;2023-06-22T16:24:51;28.80;1.00
336;DHT22;156;48.738;9.228;2023-06-22T16:27:41;29.20;1.00
336;DHT22;156;48.738;9.228;2023-06-22T16:30:19;29.10;1.00
336;DHT22;156;48.738;9.228;2023-06-22T16:32:53;28.90;1.00
336;DHT22;156;48.738;9.228;2023-06-22T16:35:35;28.00;1.00
336;DHT22;156;48.738;9.228;2023-06-22T16:38:13;28.20;1.00
336;DHT22;156;48.738;9.228;2023-06-22T16:40:46;29.20;1.00
336;DHT22;156;48.738;9.228;2023-06-22T16:43:19;29.10;1.00
336;DHT22;156;48.738;9.228;2023-06-22T16:45:48;28.70;1.00
336;DHT22;156;48.738;9.228;2023-06-22T16:48:21;29.80;1.00
336;DHT22;156;48.738;9.228;2023-06-22T16:51:06;28.70;1.00
336;DHT22;156;48.738;9.228;2023-06-22T16:53:58;29.50;1.00
336;DHT22;156;48.738;9.228;2023-06-22T16:56:34;28.90;1.00
336;DHT22;156;48.738;9.228;2023-06-22T16:59:11;28.60;1.00
336;DHT22;156;48.738;9.228;2023-06-22T17:01:44;28.50;1.00
336;DHT22;156;48.738;9.228;2023-06-22T17:04:16;28.70;1.00
336;DHT22;156;48.738;9.228;2023-06-22T17:06:51;28.90;1.00
336;DHT22;156;48.738;9.228;2023-06-22T17:09:25;29.10;1.00